sensor_id;sensor_type;location;lat;lon;timestamp;temperature;humidity
65207;SHT31;58477;48.072;11.970;2023-11-19T00:01:32;3.23;99.99
65207;SHT31;58477;48.072;11.970;2023-11-19T00:03:58;3.34;99.99
65207;SHT31;58477;48.072;11.970;2023-11-19T00:06:24;3.41;99.99
65207;SHT31;58477;48.072;11.970;2023-11-19T00:08:50;3.35;99.99
65207;SHT31;58477;48.072;11.970;2023-11-19T00:11:16;3.47;99.99
65207;SHT31;58477;48.072;11.970;2023-11-19T00:13:41;3.57;99.99
65207;SHT31;58477;48.072;11.970;2023-11-19T00:16:07;3.57;99.99
65207;SHT31;58477;48.072;11.970;2023-11-19T00:18:34;3.52;99.99
65207;SHT31;58477;48.072;11.970;2023-11-19T00:21:00;3.55;99.99
65207;SHT31;58477;48.072;11.970;2023-11-19T00:23:27;3.67;99.99
65207;SHT31;58477;48.072;11.970;2023-11-19T00:25:52;3.71;99.99
65207;SHT31;58477;48.072;11.970;2023-11-19T00:28:18;3.64;99.99
65207;SHT31;58477;48.072;11.970;2023-11-19T00:30:43;3.68;99.99
65207;SHT31;58477;48.072;11.970;2023-11-19T00:33:09;3.70;99.99
65207;SHT31;58477;48.072;11.970;2023-11-19T00:35:34;3.78;99.99
65207;SHT31;58477;48.072;11.970;2023-11-19T00:37:59;3.75;99.99
65207;SHT31;58477;48.072;11.970;2023-11-19T00:40:26;3.72;99.99
65207;SHT31;58477;48.072;11.970;2023-11-19T00:42:51;3.78;99.99
65207;SHT31;58477;48.072;11.970;2023-11-19T00:45:17;3.55;99.99
65207;SHT31;58477;48.072;11.970;2023-11-19T00:47:42;3.41;99.99
65207;SHT31;58477;48.072;11.970;2023-11-19T00:50:08;3.44;99.99
65207;SHT31;58477;48.072;11.970;2023-11-19T00:52:38;3.51;99.99
65207;SHT31;58477;48.072;11.970;2023-11-19T00:55:04;3.48;99.99
65207;SHT31;58477;48.072;11.970;2023-11-19T00:57:33;3.54;99.99
65207;SHT31;58477;48.072;11.970;2023-11-19T00:59:59;3.50;99.99
65207;SHT31;58477;48.072;11.970;2023-11-19T01:02:24;3.45;99.99
65207;SHT31;58477;48.072;11.970;2023-11-19T01:04:50;3.60;99.99
65207;SHT31;58477;48.072;11.970;2023-11-19T01:07:15;3.65;99.99
65207;SHT31;58477;48.072;11.970;2023-11-19T01:09:44;3.78;99.99
65207;SHT31;58477;48.072;11.970;2023-11-19T01:12:09;3.83;99.99
65207;SHT31;58477;48.072;11.970;2023-11-19T01:14:35;3.88;99.99
65207;SHT31;58477;48.072;11.970;2023-11-19T01:17:01;3.92;99.99
65207;SHT31;58477;48.072;11.970;2023-11-19T01:19:26;3.95;99.99
65207;SHT31;58477;48.072;11.970;2023-11-19T01:21:54;3.91;99.99
65207;SHT31;58477;48.072;11.970;2023-11-19T01:24:19;3.91;99.99
65207;SHT31;58477;48.072;11.970;2023-11-19T01:26:46;3.88;99.99
65207;SHT31;58477;48.072;11.970;2023-11-19T01:29:12;3.89;99.99
65207;SHT31;58477;48.072;11.970;2023-11-19T01:31:41;3.89;99.99
65207;SHT31;58477;48.072;11.970;2023-11-19T01:34:07;3.86;99.99
65207;SHT31;58477;48.072;11.970;2023-11-19T01:36:33;3.88;99.99
65207;SHT31;58477;48.072;11.970;2023-11-19T01:38:59;3.92;99.99
65207;SHT31;58477;48.072;11.970;2023-11-19T01:41:24;3.95;99.99
65207;SHT31;58477;48.072;11.970;2023-11-19T01:43:50;3.91;99.99
65207;SHT31;58477;48.072;11.970;2023-11-19T01:46:15;4.01;99.99
65207;SHT31;58477;48.072;11.970;2023-11-19T01:48:46;4.01;99.99
65207;SHT31;58477;48.072;11.970;2023-11-19T01:51:16;4.06;99.99
65207;SHT31;58477;48.072;11.970;2023-11-19T01:53:43;4.05;99.99
65207;SHT31;58477;48.072;11.970;2023-11-19T01:56:09;4.05;99.99
65207;SHT31;58477;48.072;11.970;2023-11-19T01:58:36;4.06;99.99
65207;SHT31;58477;48.072;11.970;2023-11-19T02:01:02;3.99;99.99
65207;SHT31;58477;48.072;11.970;2023-11-19T02:03:31;4.12;99.99
65207;SHT31;58477;48.072;11.970;2023-11-19T02:05:58;4.16;99.99
65207;SHT31;58477;48.072;11.970;2023-11-19T02:08:24;4.13;99.99
65207;SHT31;58477;48.072;11.970;2023-11-19T02:10:49;4.19;99.99
65207;SHT31;58477;48.072;11.970;2023-11-19T02:13:15;4.09;99.99
65207;SHT31;58477;48.072;11.970;2023-11-19T02:15:41;4.20;99.99
65207;SHT31;58477;48.072;11.970;2023-11-19T02:18:24;4.22;99.99
65207;SHT31;58477;48.072;11.970;2023-11-19T02:20:53;4.19;99.99
65207;SHT31;58477;48.072;11.970;2023-11-19T02:23:20;4.20;99.99
65207;SHT31;58477;48.072;11.970;2023-11-19T02:28:45;4.19;99.99
65207;SHT31;58477;48.072;11.970;2023-11-19T02:31:11;4.23;99.99
65207;SHT31;58477;48.072;11.970;2023-11-19T02:33:37;4.15;99.99
65207;SHT31;58477;48.072;11.970;2023-11-19T02:36:04;4.17;99.99
65207;SHT31;58477;48.072;11.970;2023-11-19T02:38:30;4.22;99.99
65207;SHT31;58477;48.072;11.970;2023-11-19T02:40:56;4.12;99.99
65207;SHT31;58477;48.072;11.970;2023-11-19T02:43:22;4.16;99.99
65207;SHT31;58477;48.072;11.970;2023-11-19T02:45:48;4.25;99.99
65207;SHT31;58477;48.072;11.970;2023-11-19T02:48:13;4.20;99.99
65207;SHT31;58477;48.072;11.970;2023-11-19T02:50:44;4.23;99.99
65207;SHT31;58477;48.072;11.970;2023-11-19T02:53:09;4.23;99.99
65207;SHT31;58477;48.072;11.970;2023-11-19T02:55:35;4.22;99.99
65207;SHT31;58477;48.072;11.970;2023-11-19T02:58:04;4.23;99.99
65207;SHT31;58477;48.072;11.970;2023-11-19T03:00:45;4.22;99.99
65207;SHT31;58477;48.072;11.970;2023-11-19T03:03:19;4.22;99.99
65207;SHT31;58477;48.072;11.970;2023-11-19T03:05:48;4.26;99.99
65207;SHT31;58477;48.072;11.970;2023-11-19T03:08:17;4.23;99.99
65207;SHT31;58477;48.072;11.970;2023-11-19T03:10:42;4.36;99.99
65207;SHT31;58477;48.072;11.970;2023-11-19T03:13:12;4.37;99.99
65207;SHT31;58477;48.072;11.970;2023-11-19T03:15:42;4.36;99.99
65207;SHT31;58477;48.072;11.970;2023-11-19T03:18:08;4.42;99.99
65207;SHT31;58477;48.072;11.970;2023-11-19T03:20:34;4.46;99.99
65207;SHT31;58477;48.072;11.970;2023-11-19T03:22:59;4.52;99.99
65207;SHT31;58477;48.072;11.970;2023-11-19T03:25:27;4.53;99.99
65207;SHT31;58477;48.072;11.970;2023-11-19T03:27:58;4.59;99.99
65207;SHT31;58477;48.072;11.970;2023-11-19T03:30:24;4.60;99.99
65207;SHT31;58477;48.072;11.970;2023-11-19T03:32:50;4.63;99.99
65207;SHT31;58477;48.072;11.970;2023-11-19T03:35:15;4.63;99.99
65207;SHT31;58477;48.072;11.970;2023-11-19T03:37:41;4.60;99.99
65207;SHT31;58477;48.072;11.970;2023-11-19T03:40:06;4.63;99.99
65207;SHT31;58477;48.072;11.970;2023-11-19T03:42:32;4.63;99.99
65207;SHT31;58477;48.072;11.970;2023-11-19T03:44:58;4.66;99.99
65207;SHT31;58477;48.072;11.970;2023-11-19T03:47:24;4.60;99.99
65207;SHT31;58477;48.072;11.970;2023-11-19T03:49:50;4.63;99.99
65207;SHT31;58477;48.072;11.970;2023-11-19T03:52:19;4.70;99.99
65207;SHT31;58477;48.072;11.970;2023-11-19T03:54:44;4.74;99.99
65207;SHT31;58477;48.072;11.970;2023-11-19T03:57:13;4.71;99.99
65207;SHT31;58477;48.072;11.970;2023-11-19T03:59:40;4.64;99.99
65207;SHT31;58477;48.072;11.970;2023-11-19T04:02:06;4.80;99.99
65207;SHT31;58477;48.072;11.970;2023-11-19T04:04:32;4.76;99.99
65207;SHT31;58477;48.072;11.970;2023-11-19T04:06:59;4.73;99.99
65207;SHT31;58477;48.072;11.970;2023-11-19T04:09:26;4.71;99.99
65207;SHT31;58477;48.072;11.970;2023-11-19T04:11:51;4.70;99.99
65207;SHT31;58477;48.072;11.970;2023-11-19T04:14:17;4.74;99.99
65207;SHT31;58477;48.072;11.970;2023-11-19T04:16:44;4.85;99.99
65207;SHT31;58477;48.072;11.970;2023-11-19T04:19:11;4.81;99.99
65207;SHT31;58477;48.072;11.970;2023-11-19T04:21:36;4.64;99.99
65207;SHT31;58477;48.072;11.970;2023-11-19T04:24:02;4.66;99.99
65207;SHT31;58477;48.072;11.970;2023-11-19T04:26:27;4.73;99.99
65207;SHT31;58477;48.072;11.970;2023-11-19T04:28:56;4.74;99.99
65207;SHT31;58477;48.072;11.970;2023-11-19T04:31:21;4.77;99.99
65207;SHT31;58477;48.072;11.970;2023-11-19T04:33:47;4.85;99.99
65207;SHT31;58477;48.072;11.970;2023-11-19T04:36:12;4.91;99.99
65207;SHT31;58477;48.072;11.970;2023-11-19T04:38:39;4.92;99.99
65207;SHT31;58477;48.072;11.970;2023-11-19T04:41:05;4.97;99.99
65207;SHT31;58477;48.072;11.970;2023-11-19T04:43:34;4.95;99.99
65207;SHT31;58477;48.072;11.970;2023-11-19T04:46:00;4.98;99.99
65207;SHT31;58477;48.072;11.970;2023-11-19T04:48:25;5.02;99.99
65207;SHT31;58477;48.072;11.970;2023-11-19T04:50:51;5.08;99.99
65207;SHT31;58477;48.072;11.970;2023-11-19T04:53:17;5.02;99.99
65207;SHT31;58477;48.072;11.970;2023-11-19T04:55:43;5.02;99.99
65207;SHT31;58477;48.072;11.970;2023-11-19T04:58:08;5.04;99.99
65207;SHT31;58477;48.072;11.970;2023-11-19T05:00:34;5.21;99.99
65207;SHT31;58477;48.072;11.970;2023-11-19T05:03:00;5.35;99.99
65207;SHT31;58477;48.072;11.970;2023-11-19T05:05:25;5.36;99.99
65207;SHT31;58477;48.072;11.970;2023-11-19T05:07:50;5.31;99.99
65207;SHT31;58477;48.072;11.970;2023-11-19T05:10:16;5.34;99.99
65207;SHT31;58477;48.072;11.970;2023-11-19T05:12:41;5.25;99.99
65207;SHT31;58477;48.072;11.970;2023-11-19T05:15:07;5.14;99.99
65207;SHT31;58477;48.072;11.970;2023-11-19T05:17:33;5.22;99.99
65207;SHT31;58477;48.072;11.970;2023-11-19T05:19:58;5.24;99.99
65207;SHT31;58477;48.072;11.970;2023-11-19T05:22:24;5.17;99.99
65207;SHT31;58477;48.072;11.970;2023-11-19T05:24:51;5.18;99.99
65207;SHT31;58477;48.072;11.970;2023-11-19T05:27:17;5.36;99.99
65207;SHT31;58477;48.072;11.970;2023-11-19T05:29:42;5.31;99.99
65207;SHT31;58477;48.072;11.970;2023-11-19T05:32:09;5.42;99.99
65207;SHT31;58477;48.072;11.970;2023-11-19T05:34:34;5.92;99.99
65207;SHT31;58477;48.072;11.970;2023-11-19T05:37:00;6.00;99.99
65207;SHT31;58477;48.072;11.970;2023-11-19T05:39:25;6.53;99.99
65207;SHT31;58477;48.072;11.970;2023-11-19T05:41:51;6.85;99.99
65207;SHT31;58477;48.072;11.970;2023-11-19T05:44:17;7.18;99.99
65207;SHT31;58477;48.072;11.970;2023-11-19T05:46:42;7.33;99.99
65207;SHT31;58477;48.072;11.970;2023-11-19T05:49:09;7.74;99.99
65207;SHT31;58477;48.072;11.970;2023-11-19T05:51:38;7.86;99.99
65207;SHT31;58477;48.072;11.970;2023-11-19T05:54:08;8.04;99.99
65207;SHT31;58477;48.072;11.970;2023-11-19T05:56:33;8.21;99.99
65207;SHT31;58477;48.072;11.970;2023-11-19T05:59:00;8.41;99.99
65207;SHT31;58477;48.072;11.970;2023-11-19T06:01:40;8.51;99.99
65207;SHT31;58477;48.072;11.970;2023-11-19T06:04:07;8.64;99.99
65207;SHT31;58477;48.072;11.970;2023-11-19T06:06:32;8.75;99.99
65207;SHT31;58477;48.072;11.970;2023-11-19T06:08:57;8.89;99.99
65207;SHT31;58477;48.072;11.970;2023-11-19T06:11:23;8.86;99.99
65207;SHT31;58477;48.072;11.970;2023-11-19T06:13:52;8.82;99.99
65207;SHT31;58477;48.072;11.970;2023-11-19T06:16:18;8.93;99.99
65207;SHT31;58477;48.072;11.970;2023-11-19T06:18:43;8.95;99.99
65207;SHT31;58477;48.072;11.970;2023-11-19T06:21:10;9.06;99.99
65207;SHT31;58477;48.072;11.970;2023-11-19T06:23:35;9.02;99.99
65207;SHT31;58477;48.072;11.970;2023-11-19T06:26:01;9.03;99.99
65207;SHT31;58477;48.072;11.970;2023-11-19T06:28:26;9.13;99.99
65207;SHT31;58477;48.072;11.970;2023-11-19T06:30:52;9.15;99.99
65207;SHT31;58477;48.072;11.970;2023-11-19T06:33:17;9.24;99.99
65207;SHT31;58477;48.072;11.970;2023-11-19T06:35:42;9.24;99.99
65207;SHT31;58477;48.072;11.970;2023-11-19T06:38:08;9.19;99.99
65207;SHT31;58477;48.072;11.970;2023-11-19T06:40:34;9.13;99.99
65207;SHT31;58477;48.072;11.970;2023-11-19T06:43:03;9.23;99.99
65207;SHT31;58477;48.072;11.970;2023-11-19T06:45:29;9.20;99.99
65207;SHT31;58477;48.072;11.970;2023-11-19T06:47:54;9.22;99.99
65207;SHT31;58477;48.072;11.970;2023-11-19T06:50:20;9.29;99.99
65207;SHT31;58477;48.072;11.970;2023-11-19T06:52:46;9.29;99.99
65207;SHT31;58477;48.072;11.970;2023-11-19T06:55:11;9.32;99.99
65207;SHT31;58477;48.072;11.970;2023-11-19T06:57:37;9.39;99.99
65207;SHT31;58477;48.072;11.970;2023-11-19T07:00:03;9.34;99.99
65207;SHT31;58477;48.072;11.970;2023-11-19T07:02:31;9.39;99.99
65207;SHT31;58477;48.072;11.970;2023-11-19T07:04:57;9.47;99.99
65207;SHT31;58477;48.072;11.970;2023-11-19T07:07:22;9.51;99.99
65207;SHT31;58477;48.072;11.970;2023-11-19T07:09:48;9.53;99.99
65207;SHT31;58477;48.072;11.970;2023-11-19T07:12:14;9.53;99.99
65207;SHT31;58477;48.072;11.970;2023-11-19T07:14:40;9.56;99.99
65207;SHT31;58477;48.072;11.970;2023-11-19T07:17:05;9.58;99.99
65207;SHT31;58477;48.072;11.970;2023-11-19T07:19:31;9.64;99.99
65207;SHT31;58477;48.072;11.970;2023-11-19T07:21:57;9.69;99.99
65207;SHT31;58477;48.072;11.970;2023-11-19T07:24:22;9.73;99.99
65207;SHT31;58477;48.072;11.970;2023-11-19T07:26:48;9.70;99.99
65207;SHT31;58477;48.072;11.970;2023-11-19T07:29:17;9.73;99.99
65207;SHT31;58477;48.072;11.970;2023-11-19T07:31:42;9.77;99.99
65207;SHT31;58477;48.072;11.970;2023-11-19T07:34:10;9.78;99.99
65207;SHT31;58477;48.072;11.970;2023-11-19T07:36:36;9.80;99.99
65207;SHT31;58477;48.072;11.970;2023-11-19T07:39:03;9.84;99.99
65207;SHT31;58477;48.072;11.970;2023-11-19T07:41:31;9.78;99.99
65207;SHT31;58477;48.072;11.970;2023-11-19T07:43:56;9.86;99.99
65207;SHT31;58477;48.072;11.970;2023-11-19T07:46:21;9.84;99.99
65207;SHT31;58477;48.072;11.970;2023-11-19T07:48:47;9.98;99.99
65207;SHT31;58477;48.072;11.970;2023-11-19T07:51:13;9.90;99.99
65207;SHT31;58477;48.072;11.970;2023-11-19T07:53:39;10.04;99.99
65207;SHT31;58477;48.072;11.970;2023-11-19T07:56:06;10.05;99.99
65207;SHT31;58477;48.072;11.970;2023-11-19T07:58:32;10.09;99.99
65207;SHT31;58477;48.072;11.970;2023-11-19T08:00:57;10.11;99.99
65207;SHT31;58477;48.072;11.970;2023-11-19T08:03:23;10.18;99.99
65207;SHT31;58477;48.072;11.970;2023-11-19T08:05:49;10.12;99.99
65207;SHT31;58477;48.072;11.970;2023-11-19T08:08:14;10.19;99.99
65207;SHT31;58477;48.072;11.970;2023-11-19T08:10:40;10.21;99.99
65207;SHT31;58477;48.072;11.970;2023-11-19T08:13:06;10.22;99.99
65207;SHT31;58477;48.072;11.970;2023-11-19T08:15:32;10.19;99.99
65207;SHT31;58477;48.072;11.970;2023-11-19T08:17:58;10.17;99.99
65207;SHT31;58477;48.072;11.970;2023-11-19T08:20:23;10.18;99.99
65207;SHT31;58477;48.072;11.970;2023-11-19T08:22:49;10.14;99.99
65207;SHT31;58477;48.072;11.970;2023-11-19T08:25:15;10.15;99.99
65207;SHT31;58477;48.072;11.970;2023-11-19T08:27:40;10.19;99.99
65207;SHT31;58477;48.072;11.970;2023-11-19T08:30:06;10.19;99.99
65207;SHT31;58477;48.072;11.970;2023-11-19T08:32:32;10.25;99.99
65207;SHT31;58477;48.072;11.970;2023-11-19T08:34:57;10.37;99.99
65207;SHT31;58477;48.072;11.970;2023-11-19T08:37:23;10.37;99.99
65207;SHT31;58477;48.072;11.970;2023-11-19T08:39:49;10.42;99.99
65207;SHT31;58477;48.072;11.970;2023-11-19T08:42:16;10.39;99.99
65207;SHT31;58477;48.072;11.970;2023-11-19T08:44:43;10.35;99.99
65207;SHT31;58477;48.072;11.970;2023-11-19T08:47:12;10.46;99.99
65207;SHT31;58477;48.072;11.970;2023-11-19T08:49:38;10.45;99.99
65207;SHT31;58477;48.072;11.970;2023-11-19T08:52:05;10.56;99.99
65207;SHT31;58477;48.072;11.970;2023-11-19T08:54:32;10.52;99.99
65207;SHT31;58477;48.072;11.970;2023-11-19T08:56:58;10.46;99.99
65207;SHT31;58477;48.072;11.970;2023-11-19T08:59:27;10.49;99.99
65207;SHT31;58477;48.072;11.970;2023-11-19T09:01:55;10.52;99.99
65207;SHT31;58477;48.072;11.970;2023-11-19T09:04:21;10.53;99.99
65207;SHT31;58477;48.072;11.970;2023-11-19T09:06:48;10.53;99.99
65207;SHT31;58477;48.072;11.970;2023-11-19T09:09:14;10.62;99.99
65207;SHT31;58477;48.072;11.970;2023-11-19T09:11:39;10.69;99.99
65207;SHT31;58477;48.072;11.970;2023-11-19T09:14:05;10.92;99.99
65207;SHT31;58477;48.072;11.970;2023-11-19T09:16:31;11.13;99.99
65207;SHT31;58477;48.072;11.970;2023-11-19T09:18:57;11.28;99.32
65207;SHT31;58477;48.072;11.970;2023-11-19T09:21:28;11.26;99.35
65207;SHT31;58477;48.072;11.970;2023-11-19T09:23:57;11.13;99.62
65207;SHT31;58477;48.072;11.970;2023-11-19T09:26:23;11.09;99.90
65207;SHT31;58477;48.072;11.970;2023-11-19T09:28:49;11.06;99.99
65207;SHT31;58477;48.072;11.970;2023-11-19T09:31:15;11.23;99.70
65207;SHT31;58477;48.072;11.970;2023-11-19T09:33:41;11.17;99.40
65207;SHT31;58477;48.072;11.970;2023-11-19T09:36:07;11.20;99.72
65207;SHT31;58477;48.072;11.970;2023-11-19T09:38:32;11.15;99.39
65207;SHT31;58477;48.072;11.970;2023-11-19T09:40:58;11.16;99.57
65207;SHT31;58477;48.072;11.970;2023-11-19T09:43:26;11.20;99.57
65207;SHT31;58477;48.072;11.970;2023-11-19T09:45:54;11.19;99.84
65207;SHT31;58477;48.072;11.970;2023-11-19T09:48:20;11.20;99.79
65207;SHT31;58477;48.072;11.970;2023-11-19T09:50:47;11.20;99.91
65207;SHT31;58477;48.072;11.970;2023-11-19T09:53:13;11.20;99.66
65207;SHT31;58477;48.072;11.970;2023-11-19T09:55:39;11.22;99.81
65207;SHT31;58477;48.072;11.970;2023-11-19T09:58:06;11.19;99.92
65207;SHT31;58477;48.072;11.970;2023-11-19T10:00:32;11.22;99.96
65207;SHT31;58477;48.072;11.970;2023-11-19T10:02:59;11.37;99.19
65207;SHT31;58477;48.072;11.970;2023-11-19T10:05:25;11.28;99.99
65207;SHT31;58477;48.072;11.970;2023-11-19T10:07:51;11.26;99.99
65207;SHT31;58477;48.072;11.970;2023-11-19T10:10:17;11.20;99.99
65207;SHT31;58477;48.072;11.970;2023-11-19T10:12:47;11.31;99.99
65207;SHT31;58477;48.072;11.970;2023-11-19T10:15:23;11.60;99.60
65207;SHT31;58477;48.072;11.970;2023-11-19T10:17:55;11.98;98.69
65207;SHT31;58477;48.072;11.970;2023-11-19T10:20:21;11.98;98.26
65207;SHT31;58477;48.072;11.970;2023-11-19T10:22:47;11.91;98.15
65207;SHT31;58477;48.072;11.970;2023-11-19T10:25:23;12.06;98.97
65207;SHT31;58477;48.072;11.970;2023-11-19T10:27:52;12.06;97.92
65207;SHT31;58477;48.072;11.970;2023-11-19T10:30:22;12.42;98.25
65207;SHT31;58477;48.072;11.970;2023-11-19T10:35:36;12.11;98.45
65207;SHT31;58477;48.072;11.970;2023-11-19T10:38:13;12.10;98.24
65207;SHT31;58477;48.072;11.970;2023-11-19T10:40:39;12.01;97.52
65207;SHT31;58477;48.072;11.970;2023-11-19T10:43:05;12.04;97.92
65207;SHT31;58477;48.072;11.970;2023-11-19T10:45:33;12.15;97.78
65207;SHT31;58477;48.072;11.970;2023-11-19T10:47:59;12.06;98.11
65207;SHT31;58477;48.072;11.970;2023-11-19T10:50:26;12.20;97.74
65207;SHT31;58477;48.072;11.970;2023-11-19T10:52:56;12.72;97.36
65207;SHT31;58477;48.072;11.970;2023-11-19T10:55:27;12.97;95.82
65207;SHT31;58477;48.072;11.970;2023-11-19T10:58:01;12.73;95.75
65207;SHT31;58477;48.072;11.970;2023-11-19T11:00:37;12.53;96.04
65207;SHT31;58477;48.072;11.970;2023-11-19T11:03:14;12.70;96.62
65207;SHT31;58477;48.072;11.970;2023-11-19T11:05:41;13.39;95.63
65207;SHT31;58477;48.072;11.970;2023-11-19T11:08:07;13.23;94.36
65207;SHT31;58477;48.072;11.970;2023-11-19T11:10:40;13.48;94.05
65207;SHT31;58477;48.072;11.970;2023-11-19T11:13:07;13.77;94.71
65207;SHT31;58477;48.072;11.970;2023-11-19T11:15:33;14.18;91.98
65207;SHT31;58477;48.072;11.970;2023-11-19T11:18:01;13.34;93.26
65207;SHT31;58477;48.072;11.970;2023-11-19T11:20:30;12.96;95.46
65207;SHT31;58477;48.072;11.970;2023-11-19T11:29:09;13.07;95.11
65207;SHT31;58477;48.072;11.970;2023-11-19T11:31:49;13.37;93.96
65207;SHT31;58477;48.072;11.970;2023-11-19T11:39:51;13.21;94.21
65207;SHT31;58477;48.072;11.970;2023-11-19T11:50:10;13.27;93.77
65207;SHT31;58477;48.072;11.970;2023-11-19T11:57:57;13.23;93.57
65207;SHT31;58477;48.072;11.970;2023-11-19T12:02:49;13.64;93.15
65207;SHT31;58477;48.072;11.970;2023-11-19T12:05:15;13.77;91.98
65207;SHT31;58477;48.072;11.970;2023-11-19T12:07:40;13.68;92.45
65207;SHT31;58477;48.072;11.970;2023-11-19T12:10:07;13.74;91.79
65207;SHT31;58477;48.072;11.970;2023-11-19T12:12:33;13.48;92.45
65207;SHT31;58477;48.072;11.970;2023-11-19T12:15:01;13.57;92.64
65207;SHT31;58477;48.072;11.970;2023-11-19T12:20:05;14.15;92.20
65207;SHT31;58477;48.072;11.970;2023-11-19T12:22:35;14.22;92.21
65207;SHT31;58477;48.072;11.970;2023-11-19T12:25:02;14.12;91.86
65207;SHT31;58477;48.072;11.970;2023-11-19T12:27:27;14.08;92.01
65207;SHT31;58477;48.072;11.970;2023-11-19T12:29:53;14.02;91.21
65207;SHT31;58477;48.072;11.970;2023-11-19T12:32:19;13.84;91.19
65207;SHT31;58477;48.072;11.970;2023-11-19T12:34:45;13.71;92.06
65207;SHT31;58477;48.072;11.970;2023-11-19T12:37:10;13.65;92.12
65207;SHT31;58477;48.072;11.970;2023-11-19T12:39:36;13.53;91.86
65207;SHT31;58477;48.072;11.970;2023-11-19T12:42:01;13.65;92.17
65207;SHT31;58477;48.072;11.970;2023-11-19T12:44:27;13.48;91.82
65207;SHT31;58477;48.072;11.970;2023-11-19T12:47:00;13.37;92.20
65207;SHT31;58477;48.072;11.970;2023-11-19T12:49:26;13.19;92.76
65207;SHT31;58477;48.072;11.970;2023-11-19T12:51:52;13.10;92.25
65207;SHT31;58477;48.072;11.970;2023-11-19T12:54:18;13.03;92.42
65207;SHT31;58477;48.072;11.970;2023-11-19T12:56:53;12.97;92.98
65207;SHT31;58477;48.072;11.970;2023-11-19T12:59:18;12.99;92.93
65207;SHT31;58477;48.072;11.970;2023-11-19T13:01:57;12.97;93.01
65207;SHT31;58477;48.072;11.970;2023-11-19T13:04:23;12.95;92.87
65207;SHT31;58477;48.072;11.970;2023-11-19T13:06:50;13.02;92.73
65207;SHT31;58477;48.072;11.970;2023-11-19T13:09:23;13.00;92.90
65207;SHT31;58477;48.072;11.970;2023-11-19T13:11:49;13.00;93.57
65207;SHT31;58477;48.072;11.970;2023-11-19T13:14:15;12.86;93.51
65207;SHT31;58477;48.072;11.970;2023-11-19T13:16:40;12.82;93.46
65207;SHT31;58477;48.072;11.970;2023-11-19T13:19:07;12.82;93.33
65207;SHT31;58477;48.072;11.970;2023-11-19T13:21:34;12.77;92.94
65207;SHT31;58477;48.072;11.970;2023-11-19T13:23:59;12.83;92.50
65207;SHT31;58477;48.072;11.970;2023-11-19T13:26:25;12.89;92.21
65207;SHT31;58477;48.072;11.970;2023-11-19T13:28:50;12.86;92.69
65207;SHT31;58477;48.072;11.970;2023-11-19T13:31:16;12.85;92.34
65207;SHT31;58477;48.072;11.970;2023-11-19T13:33:42;12.87;92.37
65207;SHT31;58477;48.072;11.970;2023-11-19T13:36:08;12.90;93.07
65207;SHT31;58477;48.072;11.970;2023-11-19T13:38:35;12.86;93.21
65207;SHT31;58477;48.072;11.970;2023-11-19T13:41:01;12.82;93.68
65207;SHT31;58477;48.072;11.970;2023-11-19T13:43:27;12.90;93.19
65207;SHT31;58477;48.072;11.970;2023-11-19T13:45:55;12.95;92.45
65207;SHT31;58477;48.072;11.970;2023-11-19T13:48:21;12.89;92.66
65207;SHT31;58477;48.072;11.970;2023-11-19T13:50:47;12.90;93.53
65207;SHT31;58477;48.072;11.970;2023-11-19T13:53:12;12.97;92.64
65207;SHT31;58477;48.072;11.970;2023-11-19T13:55:38;12.95;93.23
65207;SHT31;58477;48.072;11.970;2023-11-19T13:58:03;12.79;93.21
65207;SHT31;58477;48.072;11.970;2023-11-19T14:00:29;12.70;93.61
65207;SHT31;58477;48.072;11.970;2023-11-19T14:02:54;12.65;93.21
65207;SHT31;58477;48.072;11.970;2023-11-19T14:05:20;12.60;93.50
65207;SHT31;58477;48.072;11.970;2023-11-19T14:07:45;12.60;93.40
65207;SHT31;58477;48.072;11.970;2023-11-19T14:10:14;12.63;93.22
65207;SHT31;58477;48.072;11.970;2023-11-19T14:12:41;12.60;93.17
65207;SHT31;58477;48.072;11.970;2023-11-19T14:15:08;12.59;93.71
65207;SHT31;58477;48.072;11.970;2023-11-19T14:17:40;12.52;94.03
65207;SHT31;58477;48.072;11.970;2023-11-19T14:20:06;12.50;94.00
65207;SHT31;58477;48.072;11.970;2023-11-19T14:22:45;12.48;94.15
65207;SHT31;58477;48.072;11.970;2023-11-19T14:25:13;12.55;94.14
65207;SHT31;58477;48.072;11.970;2023-11-19T14:27:42;12.60;93.88
65207;SHT31;58477;48.072;11.970;2023-11-19T14:30:10;12.66;93.68
65207;SHT31;58477;48.072;11.970;2023-11-19T14:32:37;12.60;93.48
65207;SHT31;58477;48.072;11.970;2023-11-19T14:35:03;12.50;94.07
65207;SHT31;58477;48.072;11.970;2023-11-19T14:37:29;12.45;94.57
65207;SHT31;58477;48.072;11.970;2023-11-19T14:39:56;12.48;94.17
65207;SHT31;58477;48.072;11.970;2023-11-19T14:42:23;12.38;94.48
65207;SHT31;58477;48.072;11.970;2023-11-19T14:44:49;12.32;94.61
65207;SHT31;58477;48.072;11.970;2023-11-19T14:47:14;12.32;94.54
65207;SHT31;58477;48.072;11.970;2023-11-19T14:49:40;12.34;94.59
65207;SHT31;58477;48.072;11.970;2023-11-19T14:52:05;12.31;94.72
65207;SHT31;58477;48.072;11.970;2023-11-19T14:54:30;12.32;94.27
65207;SHT31;58477;48.072;11.970;2023-11-19T14:56:56;12.46;93.59
65207;SHT31;58477;48.072;11.970;2023-11-19T14:59:22;12.45;94.31
65207;SHT31;58477;48.072;11.970;2023-11-19T15:01:47;12.50;93.71
65207;SHT31;58477;48.072;11.970;2023-11-19T15:04:13;12.43;93.52
65207;SHT31;58477;48.072;11.970;2023-11-19T15:06:38;12.39;93.92
65207;SHT31;58477;48.072;11.970;2023-11-19T15:09:04;12.31;93.67
65207;SHT31;58477;48.072;11.970;2023-11-19T15:11:30;12.25;93.36
65207;SHT31;58477;48.072;11.970;2023-11-19T15:13:56;12.17;93.13
65207;SHT31;58477;48.072;11.970;2023-11-19T15:16:21;11.97;93.93
65207;SHT31;58477;48.072;11.970;2023-11-19T15:18:57;11.87;94.08
65207;SHT31;58477;48.072;11.970;2023-11-19T15:21:27;11.82;94.39
65207;SHT31;58477;48.072;11.970;2023-11-19T15:23:57;11.66;94.72
65207;SHT31;58477;48.072;11.970;2023-11-19T15:26:22;11.58;94.75
65207;SHT31;58477;48.072;11.970;2023-11-19T15:28:48;11.50;95.11
65207;SHT31;58477;48.072;11.970;2023-11-19T15:31:13;11.43;95.35
65207;SHT31;58477;48.072;11.970;2023-11-19T15:33:42;11.40;95.20
65207;SHT31;58477;48.072;11.970;2023-11-19T15:36:08;11.38;95.03
65207;SHT31;58477;48.072;11.970;2023-11-19T15:38:36;11.33;95.20
65207;SHT31;58477;48.072;11.970;2023-11-19T15:41:02;11.24;95.43
65207;SHT31;58477;48.072;11.970;2023-11-19T15:43:28;11.12;95.75
65207;SHT31;58477;48.072;11.970;2023-11-19T15:45:54;11.07;95.90
65207;SHT31;58477;48.072;11.970;2023-11-19T15:48:20;10.97;96.23
65207;SHT31;58477;48.072;11.970;2023-11-19T15:50:45;10.96;96.28
65207;SHT31;58477;48.072;11.970;2023-11-19T15:53:11;10.93;96.32
65207;SHT31;58477;48.072;11.970;2023-11-19T15:55:36;10.86;96.47